Time;durP1;ratioP1;P1;durP2;ratioP2;P2;SDS_P1;SDS_P2;PMS_P1;PMS_P2;Temp;Humidity;BMP_temperature;BMP_pressure;BME280_temperature;BME280_humidity;BME280_pressure;Samples;Min_cycle;Max_cycle;Signal;HPM_P1;HPM_P2
2022/04/18 00:01:28;;;;;;;10.80;7.85;;;6.10;72.50;;;;;;4212916;28;20052;-75
2022/04/18 00:03:30;;;;;;;15.30;8.23;;;6.00;72.70;;;;;;4213479;28;20106;-75
2022/04/18 00:05:32;;;;;;;11.48;7.55;;;6.00;72.70;;;;;;4209332;28;20848;-75
2022/04/18 00:07:34;;;;;;;10.30;6.03;;;6.10;72.60;;;;;;4201873;28;20061;-76
2022/04/18 00:09:36;;;;;;;11.20;6.20;;;6.00;72.70;;;;;;4216611;28;20219;-75
2022/04/18 00:11:38;;;;;;;14.15;8.90;;;6.00;72.90;;;;;;4209507;28;20075;-75
2022/04/18 00:13:39;;;;;;;14.57;8.15;;;5.90;73.20;;;;;;4210136;28;20052;-75
2022/04/18 00:15:41;;;;;;;8.43;6.20;;;5.90;73.60;;;;;;4212651;28;20060;-75
2022/04/18 00:17:43;;;;;;;8.93;6.05;;;5.90;73.50;;;;;;4201052;28;20172;-75
2022/04/18 00:19:45;;;;;;;4.30;3.90;;;5.90;73.60;;;;;;4210915;28;20906;-75
2022/04/18 00:21:46;;;;;;;5.03;4.13;;;5.80;73.90;;;;;;4195597;28;20061;-75
2022/04/18 00:23:48;;;;;;;5.50;3.53;;;5.80;74.20;;;;;;4212502;28;20057;-74
2022/04/18 00:25:50;;;;;;;4.85;3.83;;;5.80;74.30;;;;;;4193249;28;20057;-75
2022/04/18 00:27:51;;;;;;;5.10;3.38;;;5.70;75.20;;;;;;4214056;28;20088;-75
2022/04/18 00:29:53;;;;;;;3.70;3.40;;;5.70;74.90;;;;;;4213480;28;20103;-75
2022/04/18 00:31:55;;;;;;;3.97;2.75;;;5.60;75.40;;;;;;4213412;28;20071;-75
2022/04/18 00:33:57;;;;;;;4.05;3.38;;;5.50;75.40;;;;;;4211240;28;20079;-75
2022/04/18 00:35:58;;;;;;;3.08;2.78;;;5.50;75.50;;;;;;4196387;28;20188;-75
2022/04/18 00:38:00;;;;;;;4.72;4.07;;;5.40;75.80;;;;;;4212066;28;20056;-75
2022/04/18 00:40:03;;;;;;;7.05;3.90;;;5.40;76.20;;;;;;4214377;28;20159;-76
2022/04/18 00:42:05;;;;;;;4.72;4.32;;;5.30;76.40;;;;;;4190581;28;20156;-75
2022/04/18 00:44:07;;;;;;;4.20;3.80;;;5.30;76.30;;;;;;4211754;28;20052;-75
2022/04/18 00:46:09;;;;;;;5.63;4.53;;;5.30;76.60;;;;;;4197804;28;21173;-75
2022/04/18 00:48:11;;;;;;;4.95;3.42;;;5.30;76.60;;;;;;4211643;28;20107;-74
2022/04/18 00:50:13;;;;;;;5.07;3.35;;;5.30;76.30;;;;;;4196589;28;20175;-75
2022/04/18 00:52:15;;;;;;;7.65;4.82;;;5.30;76.30;;;;;;4210623;28;20056;-75
2022/04/18 00:54:16;;;;;;;5.53;3.80;;;5.30;76.40;;;;;;4192057;28;20103;-75
2022/04/18 00:56:19;;;;;;;4.82;3.85;;;5.20;76.60;;;;;;4194740;28;20067;-75
2022/04/18 00:58:21;;;;;;;3.50;3.20;;;5.20;76.70;;;;;;4194338;28;20171;-76
2022/04/18 01:00:22;;;;;;;3.88;3.20;;;5.20;77.10;;;;;;4194341;28;20864;-75
2022/04/18 01:02:24;;;;;;;7.18;5.22;;;5.10;77.20;;;;;;4209235;28;20057;-75
2022/04/18 01:04:26;;;;;;;8.38;5.90;;;5.10;77.30;;;;;;4212350;28;20068;-75
2022/04/18 01:06:28;;;;;;;5.85;3.63;;;5.10;78.00;;;;;;4219454;28;20061;-75
2022/04/18 01:08:32;;;;;;;5.80;3.65;;;5.00;77.60;;;;;;4199730;28;20176;-75
2022/04/18 01:10:35;;;;;;;4.95;3.42;;;4.90;78.20;;;;;;4212880;28;20158;-75
2022/04/18 01:12:38;;;;;;;4.80;4.40;;;4.80;78.80;;;;;;4214987;28;20052;-75
2022/04/18 01:14:49;;;;;;;5.05;3.78;;;4.80;78.80;;;;;;4213443;28;20107;-75
2022/04/18 01:16:51;;;;;;;4.30;3.90;;;4.80;78.80;;;;;;4220612;22;20048;-73
2022/04/18 01:18:55;;;;;;;5.28;4.25;;;4.80;78.60;;;;;;4180725;28;20053;-72
2022/04/18 01:20:57;;;;;;;4.15;3.30;;;4.80;79.00;;;;;;4180480;28;20084;-72
2022/04/18 01:22:59;;;;;;;4.50;3.70;;;4.80;78.90;;;;;;4181366;28;20089;-73
2022/04/18 01:29:43;;;;;;;4.03;3.22;;;4.70;79.40;;;;;;4188019;28;20882;-73
2022/04/18 01:31:45;;;;;;;8.20;5.93;;;4.60;79.80;;;;;;4180274;28;20181;-73
2022/04/18 01:33:46;;;;;;;12.30;7.65;;;4.70;79.80;;;;;;4181128;28;20057;-73
2022/04/18 01:35:48;;;;;;;7.63;6.13;;;4.70;80.00;;;;;;4181223;28;20867;-73
2022/04/18 01:37:50;;;;;;;13.68;9.05;;;4.70;80.50;;;;;;4182932;28;20063;-73
2022/04/18 01:39:51;;;;;;;5.43;4.90;;;4.70;79.70;;;;;;4180304;28;20053;-73
2022/04/18 01:41:53;;;;;;;6.07;4.47;;;4.70;79.60;;;;;;4181338;28;20139;-73
2022/04/18 01:43:55;;;;;;;5.35;3.33;;;4.70;79.40;;;;;;4180856;28;20675;-73
2022/04/18 01:45:56;;;;;;;5.18;3.70;;;4.70;79.60;;;;;;4182066;28;20064;-73
2022/04/18 01:47:58;;;;;;;3.97;3.58;;;4.70;79.30;;;;;;4180968;28;20050;-73
2022/04/18 01:50:00;;;;;;;9.25;4.82;;;4.70;79.50;;;;;;4179003;28;20797;-73
2022/04/18 01:52:02;;;;;;;13.88;7.80;;;4.70;79.70;;;;;;4179182;28;20064;-73
2022/04/18 01:54:04;;;;;;;9.77;6.88;;;4.60;79.90;;;;;;4181277;28;20064;-72
2022/04/18 01:56:05;;;;;;;13.00;7.53;;;4.60;80.00;;;;;;4183978;28;20154;-72
2022/04/18 01:58:08;;;;;;;28.55;16.35;;;4.60;80.00;;;;;;4180276;28;20815;-73
2022/04/18 02:00:10;;;;;;;21.75;10.95;;;4.70;79.80;;;;;;4181887;28;20056;-73
2022/04/18 02:02:12;;;;;;;9.73;6.97;;;4.60;79.60;;;;;;4179987;28;20049;-73
2022/04/18 02:04:13;;;;;;;12.05;7.80;;;4.70;79.50;;;;;;4196625;28;20918;-73
2022/04/18 02:06:15;;;;;;;29.45;16.77;;;4.70;79.40;;;;;;4180351;28;20054;-73
2022/04/18 02:08:17;;;;;;;27.20;14.45;;;4.70;79.50;;;;;;4181326;28;20080;-73
2022/04/18 02:10:18;;;;;;;23.15;12.50;;;4.60;79.60;;;;;;4181789;28;20941;-73
2022/04/18 02:12:20;;;;;;;21.48;12.55;;;4.60;79.60;;;;;;4182197;28;20080;-73
2022/04/18 02:14:22;;;;;;;20.20;11.73;;;4.50;80.10;;;;;;4182351;28;20061;-73
2022/04/18 02:16:24;;;;;;;17.30;10.20;;;4.40;80.50;;;;;;4180326;28;20057;-73
2022/04/18 02:18:26;;;;;;;24.55;13.77;;;4.40;80.40;;;;;;4182439;28;20127;-72
2022/04/18 02:20:28;;;;;;;34.22;17.88;;;4.40;80.40;;;;;;4179869;28;20093;-73
2022/04/18 02:22:30;;;;;;;20.08;12.07;;;4.40;80.20;;;;;;4176635;28;20173;-72
2022/04/18 02:24:32;;;;;;;12.48;8.13;;;4.40;80.50;;;;;;4182559;28;20060;-73
2022/04/18 02:26:34;;;;;;;11.88;8.05;;;4.40;80.70;;;;;;4180231;28;20064;-72
2022/04/18 02:28:35;;;;;;;12.60;8.07;;;4.40;80.60;;;;;;4182999;28;20209;-73
2022/04/18 02:30:37;;;;;;;20.30;11.00;;;4.40;80.60;;;;;;4180341;28;20622;-73
2022/04/18 02:32:49;;;;;;;38.13;19.75;;;4.40;80.30;;;;;;4179958;28;20061;-72
2022/04/18 02:34:51;;;;;;;16.42;9.82;;;4.50;80.20;;;;;;4180924;28;20144;-72
2022/04/18 02:36:53;;;;;;;17.85;10.02;;;4.50;80.10;;;;;;4180724;28;20069;-72
2022/04/18 02:38:54;;;;;;;13.10;8.32;;;4.50;79.90;;;;;;4182492;28;20053;-73
2022/04/18 02:40:56;;;;;;;11.82;7.50;;;4.60;80.00;;;;;;4197474;28;21331;-73
2022/04/18 02:42:58;;;;;;;10.07;7.05;;;4.50;80.00;;;;;;4180630;28;20772;-73
2022/04/18 02:44:59;;;;;;;7.57;5.07;;;4.50;80.20;;;;;;4187659;28;20060;-72
2022/04/18 02:47:01;;;;;;;6.05;5.45;;;4.40;80.30;;;;;;4186067;28;20057;-73
2022/04/18 02:49:03;;;;;;;6.20;5.30;;;4.40;80.30;;;;;;4182756;28;20092;-73
2022/04/18 02:51:04;;;;;;;6.15;5.57;;;4.40;80.50;;;;;;4179651;28;20100;-73
2022/04/18 02:53:06;;;;;;;6.32;4.40;;;4.40;80.60;;;;;;4181863;28;20177;-73
2022/04/18 02:55:11;;;;;;;3.80;3.50;;;4.40;80.60;;;;;;4180628;28;20116;-73
2022/04/18 02:57:13;;;;;;;3.90;3.60;;;4.40;80.50;;;;;;4183044;28;20061;-73
2022/04/18 02:59:15;;;;;;;4.68;4.22;;;4.40;80.40;;;;;;4196194;28;20180;-73
2022/04/18 03:01:16;;;;;;;10.98;3.70;;;4.40;80.30;;;;;;4176972;28;20065;-73
2022/04/18 03:03:18;;;;;;;3.05;2.85;;;4.40;80.50;;;;;;4181425;28;20872;-73
2022/04/18 03:05:20;;;;;;;4.15;3.75;;;4.40;80.60;;;;;;4182819;28;20140;-73
2022/04/18 03:07:22;;;;;;;3.92;3.63;;;4.30;80.60;;;;;;4185785;28;20164;-73
2022/04/18 03:09:24;;;;;;;8.40;4.68;;;4.30;80.50;;;;;;4187967;28;20064;-73
2022/04/18 03:11:26;;;;;;;4.45;4.13;;;4.30;80.50;;;;;;4184080;28;20064;-72
2022/04/18 03:13:27;;;;;;;3.78;3.38;;;4.30;80.90;;;;;;4198120;28;20063;-73
2022/04/18 03:15:29;;;;;;;4.10;3.65;;;4.30;80.70;;;;;;4182735;28;20584;-73
2022/04/18 03:17:31;;;;;;;4.05;3.75;;;4.30;80.90;;;;;;4182509;28;20061;-73
2022/04/18 03:19:32;;;;;;;4.18;3.78;;;4.20;80.90;;;;;;4183769;28;20057;-72
2022/04/18 03:21:34;;;;;;;4.85;3.80;;;4.20;81.20;;;;;;4183407;28;20156;-72
2022/04/18 03:23:36;;;;;;;5.20;3.83;;;4.20;82.10;;;;;;4185283;28;20056;-73
2022/04/18 03:25:37;;;;;;;4.13;3.72;;;4.10;81.60;;;;;;4184272;28;20827;-73
2022/04/18 03:27:39;;;;;;;5.15;3.55;;;4.10;81.70;;;;;;4185028;28;20045;-73
2022/04/18 03:29:41;;;;;;;3.53;3.22;;;4.20;81.60;;;;;;4183972;28;20197;-73
2022/04/18 03:31:46;;;;;;;3.22;2.92;;;4.10;81.50;;;;;;4181559;28;20206;-73
2022/04/18 03:33:48;;;;;;;4.22;2.97;;;4.20;81.90;;;;;;4183422;28;20689;-72
2022/04/18 03:40:30;;;;;;;4.28;3.45;;;4.20;81.80;;;;;;4180112;28;20203;-73
2022/04/18 03:42:32;;;;;;;2.75;2.55;;;4.10;81.80;;;;;;4183187;28;20088;-73
2022/04/18 03:44:34;;;;;;;4.10;3.10;;;4.10;81.90;;;;;;4183862;28;20064;-73
2022/04/18 03:46:36;;;;;;;3.85;2.67;;;4.10;81.80;;;;;;4182061;28;20057;-73
2022/04/18 03:48:38;;;;;;;4.78;3.00;;;4.10;81.90;;;;;;4181062;28;20058;-73
2022/04/18 03:50:39;;;;;;;3.15;2.95;;;4.10;81.90;;;;;;4181504;28;20155;-73
2022/04/18 03:52:41;;;;;;;2.88;2.58;;;4.10;82.20;;;;;;4184635;28;20711;-72
2022/04/18 03:54:43;;;;;;;4.07;2.75;;;4.00;82.20;;;;;;4181228;28;20157;-72
2022/04/18 03:56:44;;;;;;;3.65;3.20;;;4.00;82.30;;;;;;4182601;28;20053;-72
2022/04/18 03:58:46;;;;;;;3.33;2.88;;;3.90;82.80;;;;;;4181820;28;20057;-72
2022/04/18 04:00:48;;;;;;;3.72;3.42;;;3.80;83.10;;;;;;4182037;28;20080;-73
2022/04/18 04:02:49;;;;;;;3.67;2.53;;;3.80;83.30;;;;;;4187329;28;20168;-73
2022/04/18 04:04:51;;;;;;;3.35;3.05;;;3.70;84.00;;;;;;4190373;28;20061;-73
2022/04/18 04:06:53;;;;;;;3.90;3.58;;;3.60;84.40;;;;;;4180617;28;20092;-73
2022/04/18 04:08:55;;;;;;;3.63;3.13;;;3.60;84.30;;;;;;4182686;28;20068;-72
2022/04/18 04:10:56;;;;;;;5.35;3.92;;;3.60;84.40;;;;;;4181006;28;20168;-72
2022/04/18 04:12:58;;;;;;;20.80;10.98;;;3.60;84.40;;;;;;4181775;28;20242;-72
2022/04/18 04:15:00;;;;;;;10.43;6.93;;;3.60;84.70;;;;;;4180900;28;20062;-72
2022/04/18 04:17:03;;;;;;;12.15;7.68;;;3.50;85.20;;;;;;4177770;28;20150;-72
2022/04/18 04:19:08;;;;;;;11.68;8.25;;;3.50;85.10;;;;;;4182445;28;20061;-72
2022/04/18 04:21:10;;;;;;;9.18;6.43;;;3.50;84.80;;;;;;4179198;28;20097;-72
2022/04/18 04:23:12;;;;;;;11.38;6.28;;;3.50;84.90;;;;;;4181713;28;20063;-72
2022/04/18 04:25:13;;;;;;;10.32;6.78;;;3.60;84.80;;;;;;4180721;28;20825;-72
2022/04/18 04:27:15;;;;;;;14.07;8.93;;;3.60;84.90;;;;;;4182742;28;20049;-72
2022/04/18 04:29:18;;;;;;;12.73;7.70;;;3.60;84.90;;;;;;4180985;28;20052;-72
2022/04/18 04:31:19;;;;;;;11.88;7.50;;;3.60;84.90;;;;;;4180108;28;20064;-72
2022/04/18 04:33:21;;;;;;;8.35;6.03;;;3.60;84.80;;;;;;4182665;28;20087;-72
2022/04/18 04:35:23;;;;;;;7.72;6.03;;;3.60;84.80;;;;;;4180376;28;20063;-72
2022/04/18 04:37:25;;;;;;;13.02;5.40;;;3.50;85.00;;;;;;4182826;28;20053;-72
2022/04/18 04:39:26;;;;;;;4.95;4.45;;;3.50;85.30;;;;;;4182685;28;20056;-72
2022/04/18 04:41:28;;;;;;;4.78;4.30;;;3.50;85.20;;;;;;4182079;28;20057;-72
2022/04/18 04:43:29;;;;;;;4.60;4.15;;;3.50;85.30;;;;;;4180772;28;20053;-72
2022/04/18 04:45:32;;;;;;;5.45;4.78;;;3.60;85.10;;;;;;4180605;28;20057;-72
2022/04/18 04:47:34;;;;;;;5.10;4.63;;;3.60;85.10;;;;;;4181591;28;20064;-72
2022/04/18 04:49:35;;;;;;;4.07;3.78;;;3.70;84.90;;;;;;4180064;28;20156;-73
2022/04/18 04:51:38;;;;;;;4.57;4.18;;;3.80;84.50;;;;;;4180504;28;20057;-72
2022/04/18 04:53:40;;;;;;;4.07;3.60;;;3.90;83.90;;;;;;4182884;28;20751;-72
2022/04/18 04:55:42;;;;;;;3.55;3.25;;;4.10;83.30;;;;;;4182658;28;20092;-72
2022/04/18 04:57:44;;;;;;;4.03;3.22;;;4.10;82.90;;;;;;4191687;28;20061;-72
2022/04/18 04:59:45;;;;;;;4.20;3.20;;;4.30;83.40;;;;;;4182303;28;20057;-73
2022/04/18 05:01:47;;;;;;;6.35;4.28;;;4.40;82.30;;;;;;4179299;28;20057;-73
2022/04/18 05:03:49;;;;;;;4.03;3.63;;;4.50;82.00;;;;;;4180294;28;20088;-72
2022/04/18 05:05:51;;;;;;;6.85;3.67;;;4.60;81.60;;;;;;4197969;28;20064;-73
2022/04/18 05:07:55;;;;;;;3.35;3.05;;;4.70;81.00;;;;;;4175948;28;20108;-72
2022/04/18 05:09:57;;;;;;;2.60;2.40;;;4.80;80.80;;;;;;4180581;28;20065;-73
2022/04/18 05:11:58;;;;;;;3.45;2.90;;;4.80;80.90;;;;;;4179895;28;20063;-73
2022/04/18 05:14:00;;;;;;;3.83;2.83;;;4.90;80.50;;;;;;4179928;28;20041;-73
2022/04/18 05:16:02;;;;;;;2.95;2.65;;;5.00;80.40;;;;;;4182609;28;20069;-73
2022/04/18 05:18:04;;;;;;;4.10;2.70;;;5.10;80.20;;;;;;4180879;28;20064;-73
2022/04/18 05:20:06;;;;;;;2.72;2.53;;;5.20;80.00;;;;;;4183259;28;20057;-73
2022/04/18 05:22:08;;;;;;;3.90;2.78;;;5.30;79.30;;;;;;4184866;28;20665;-72
2022/04/18 05:24:10;;;;;;;3.05;2.65;;;5.40;78.80;;;;;;4184677;28;20061;-73
2022/04/18 05:26:12;;;;;;;2.72;2.53;;;5.60;78.40;;;;;;4181810;28;20203;-73
2022/04/18 05:28:14;;;;;;;3.22;2.92;;;5.70;78.20;;;;;;4179471;28;20054;-73
2022/04/18 05:30:15;;;;;;;3.35;3.00;;;5.80;77.80;;;;;;4182232;28;20092;-73
2022/04/18 05:32:17;;;;;;;2.95;2.67;;;5.90;76.10;;;;;;4181005;28;20151;-73
2022/04/18 05:34:19;;;;;;;2.95;2.65;;;6.00;72.00;;;;;;4179182;28;20102;-73
2022/04/18 05:36:21;;;;;;;5.25;2.75;;;6.20;69.90;;;;;;4180247;28;20231;-72
2022/04/18 05:38:22;;;;;;;3.65;2.80;;;6.30;71.10;;;;;;4178825;28;20101;-73
2022/04/18 05:40:24;;;;;;;8.13;3.15;;;6.50;72.40;;;;;;4177245;28;20057;-73
2022/04/18 05:42:26;;;;;;;4.00;2.80;;;6.60;71.50;;;;;;4195629;28;20190;-72
2022/04/18 05:44:28;;;;;;;3.85;2.88;;;6.80;67.40;;;;;;4178995;28;20088;-72
2022/04/18 05:46:29;;;;;;;3.25;2.67;;;6.80;68.80;;;;;;4180610;28;20063;-72
2022/04/18 05:48:31;;;;;;;2.63;2.42;;;6.90;67.20;;;;;;4182586;28;20066;-72
2022/04/18 05:50:33;;;;;;;3.30;2.47;;;6.90;66.40;;;;;;4178722;28;20070;-72
2022/04/18 05:52:34;;;;;;;3.28;2.97;;;6.90;65.40;;;;;;4192977;28;20063;-73
2022/04/18 05:54:37;;;;;;;3.30;2.67;;;6.90;65.70;;;;;;4178584;28;20092;-72
2022/04/18 05:56:39;;;;;;;3.53;2.55;;;7.00;66.20;;;;;;4179405;28;20840;-73
2022/04/18 05:58:42;;;;;;;2.97;2.75;;;7.00;65.00;;;;;;4183718;28;20061;-71
2022/04/18 06:00:44;;;;;;;3.00;2.70;;;7.00;64.70;;;;;;4181752;28;20104;-72
2022/04/18 06:02:45;;;;;;;3.75;3.13;;;7.10;65.90;;;;;;4178496;28;20666;-72
2022/04/18 06:04:47;;;;;;;2.70;2.50;;;7.30;65.00;;;;;;4179236;28;20080;-73
2022/04/18 06:06:49;;;;;;;3.58;2.63;;;7.40;64.30;;;;;;4178864;28;20057;-72
2022/04/18 06:08:50;;;;;;;4.13;2.83;;;7.40;64.40;;;;;;4179407;28;20061;-73
2022/04/18 06:10:52;;;;;;;2.72;2.50;;;7.40;63.50;;;;;;4179011;28;20827;-73
2022/04/18 06:12:54;;;;;;;2.88;2.58;;;7.40;63.90;;;;;;4181486;28;20152;-72
2022/04/18 06:14:57;;;;;;;2.13;1.98;;;7.30;63.70;;;;;;4180775;28;20053;-73
2022/04/18 06:16:58;;;;;;;5.05;3.25;;;7.40;63.50;;;;;;4180824;28;20068;-72
2022/04/18 06:19:00;;;;;;;5.80;2.33;;;7.40;62.90;;;;;;4180546;28;20053;-72
2022/04/18 06:21:02;;;;;;;3.85;2.80;;;7.40;63.40;;;;;;4178613;28;20057;-73
2022/04/18 06:23:03;;;;;;;3.05;2.80;;;7.20;63.30;;;;;;4178114;28;20064;-72
2022/04/18 06:25:06;;;;;;;2.88;2.38;;;7.30;63.60;;;;;;4195699;28;20067;-72
2022/04/18 06:27:08;;;;;;;4.22;2.65;;;7.30;63.80;;;;;;4178990;28;20065;-72
2022/04/18 06:29:10;;;;;;;3.53;3.00;;;7.40;63.90;;;;;;4179675;28;20845;-73
2022/04/18 06:31:11;;;;;;;4.43;2.63;;;7.60;64.20;;;;;;4179298;28;20063;-72
2022/04/18 06:33:13;;;;;;;3.97;2.53;;;7.70;63.40;;;;;;4179960;28;20135;-72
2022/04/18 06:35:15;;;;;;;2.92;2.40;;;7.70;62.00;;;;;;4180335;28;20065;-72
2022/04/18 06:37:17;;;;;;;2.95;2.65;;;7.80;62.80;;;;;;4180132;28;20599;-72
2022/04/18 06:39:19;;;;;;;3.60;2.72;;;7.80;61.90;;;;;;4183393;28;20093;-72
2022/04/18 06:41:20;;;;;;;4.20;2.40;;;7.80;62.40;;;;;;4188363;28;20055;-72
2022/04/18 06:43:22;;;;;;;6.75;4.43;;;7.90;62.50;;;;;;4185553;28;20100;-76
2022/04/18 06:45:24;;;;;;;3.47;2.75;;;8.00;61.80;;;;;;4182735;28;20760;-72
2022/04/18 06:47:26;;;;;;;3.05;2.65;;;8.10;61.50;;;;;;4184571;28;20048;-72
2022/04/18 06:49:27;;;;;;;3.15;2.67;;;8.10;61.10;;;;;;4184060;28;20057;-71
2022/04/18 06:51:29;;;;;;;3.63;3.03;;;8.10;61.80;;;;;;4181316;28;20164;-72
2022/04/18 06:53:31;;;;;;;3.65;3.05;;;8.10;61.50;;;;;;4196816;28;20806;-73
2022/04/18 06:57:53;;;;;;;3.30;2.78;;;8.20;61.20;;;;;;4182293;28;20061;-72
2022/04/18 06:59:55;;;;;;;2.97;2.60;;;8.40;60.40;;;;;;4183928;28;20779;-73
2022/04/18 07:01:58;;;;;;;3.15;2.65;;;8.40;60.10;;;;;;4178250;28;20152;-73
2022/04/18 07:04:00;;;;;;;5.50;3.15;;;8.50;60.60;;;;;;4184967;28;20085;-74
2022/04/18 07:06:01;;;;;;;3.08;2.50;;;8.50;61.70;;;;;;4182767;28;20938;-73
2022/04/18 07:08:03;;;;;;;3.40;2.85;;;8.60;60.30;;;;;;4181499;28;20905;-72
2022/04/18 07:10:05;;;;;;;4.20;2.53;;;8.70;60.70;;;;;;4182988;28;20715;-73
2022/04/18 07:12:08;;;;;;;5.60;3.55;;;8.80;60.00;;;;;;4181719;28;20056;-73
2022/04/18 07:14:09;;;;;;;4.03;2.83;;;8.80;59.80;;;;;;4182923;28;20677;-73
2022/04/18 07:16:11;;;;;;;4.00;3.10;;;8.90;59.60;;;;;;4182211;28;20096;-73
2022/04/18 07:18:13;;;;;;;3.75;2.90;;;9.00;58.90;;;;;;4194337;22;137000;-75
2022/04/18 07:20:15;;;;;;;3.88;3.55;;;9.00;59.10;;;;;;4194219;28;20095;-75
2022/04/18 07:22:16;;;;;;;3.92;3.53;;;9.00;59.40;;;;;;4190595;28;20886;-75
2022/04/18 07:24:18;;;;;;;2.97;2.72;;;9.10;59.40;;;;;;4196967;28;20060;-75
2022/04/18 07:26:20;;;;;;;4.28;2.90;;;9.20;59.40;;;;;;4180889;28;20061;-75
2022/04/18 07:28:22;;;;;;;2.85;2.65;;;9.20;59.00;;;;;;4193119;28;20057;-75
2022/04/18 07:30:29;;;;;;;3.40;3.10;;;9.30;59.10;;;;;;4192313;28;20123;-75
2022/04/18 07:32:31;;;;;;;6.35;3.25;;;9.40;59.30;;;;;;4191262;28;20061;-75
2022/04/18 07:34:34;;;;;;;3.58;3.10;;;9.50;58.90;;;;;;4197631;28;20131;-75
2022/04/18 07:36:36;;;;;;;3.72;2.67;;;9.50;58.70;;;;;;4192165;28;20061;-75
2022/04/18 07:38:50;;;;;;;3.47;2.75;;;9.50;59.90;;;;;;4190889;28;20057;-75
2022/04/18 07:40:53;;;;;;;2.80;2.60;;;9.60;59.10;;;;;;4194499;28;20057;-75
2022/04/18 07:42:55;;;;;;;3.17;2.88;;;9.70;58.50;;;;;;4189882;28;20093;-74
2022/04/18 07:44:56;;;;;;;3.70;3.17;;;9.80;58.40;;;;;;4194355;28;20100;-75
2022/04/18 07:46:58;;;;;;;3.28;2.60;;;9.70;58.60;;;;;;4190619;28;20064;-74
2022/04/18 07:49:00;;;;;;;2.83;2.63;;;9.90;57.90;;;;;;4187366;28;20106;-75
2022/04/18 07:53:23;;;;;;;3.75;2.63;;;9.90;57.90;;;;;;4190112;28;20802;-75
2022/04/18 07:55:25;;;;;;;4.25;2.97;;;9.90;58.20;;;;;;4195506;28;20056;-74
2022/04/18 07:57:26;;;;;;;3.13;2.63;;;9.80;58.40;;;;;;4189026;28;20084;-75
2022/04/18 07:59:28;;;;;;;4.78;3.42;;;9.90;59.00;;;;;;4185545;28;20176;-74
2022/04/18 08:01:30;;;;;;;3.95;3.00;;;10.00;59.00;;;;;;4187299;28;20085;-75
2022/04/18 08:03:36;;;;;;;3.58;3.13;;;10.10;58.20;;;;;;4193562;28;20057;-75
2022/04/18 08:05:37;;;;;;;3.78;3.25;;;10.20;58.10;;;;;;4194960;28;20134;-74
2022/04/18 08:07:39;;;;;;;3.70;3.03;;;10.20;58.20;;;;;;4191557;28;20057;-75
2022/04/18 08:09:41;;;;;;;6.95;2.95;;;10.20;58.70;;;;;;4187230;28;20515;-74
2022/04/18 08:11:42;;;;;;;2.92;2.53;;;10.30;58.50;;;;;;4191221;28;20137;-74
2022/04/18 08:13:45;;;;;;;3.08;2.35;;;10.30;57.70;;;;;;4185943;28;20057;-74
2022/04/18 08:15:47;;;;;;;4.30;3.90;;;10.20;58.90;;;;;;4190271;28;20063;-74
2022/04/18 08:17:49;;;;;;;4.03;3.38;;;10.30;58.30;;;;;;4189685;28;20798;-74
2022/04/18 08:19:51;;;;;;;5.43;3.28;;;10.40;58.20;;;;;;4194583;28;20175;-74
2022/04/18 08:21:53;;;;;;;3.20;2.88;;;10.50;58.40;;;;;;4193022;28;20120;-74
2022/04/18 08:23:54;;;;;;;4.30;2.92;;;10.50;57.20;;;;;;4212511;28;20052;-74
2022/04/18 08:26:04;;;;;;;3.28;2.97;;;10.60;56.80;;;;;;4210784;28;20064;-74
2022/04/18 08:28:06;;;;;;;7.50;2.65;;;10.70;58.00;;;;;;4209323;28;20163;-74
2022/04/18 08:30:08;;;;;;;9.07;3.03;;;10.80;57.20;;;;;;4212493;28;20071;-75
2022/04/18 08:32:10;;;;;;;4.85;3.25;;;10.80;56.00;;;;;;4211118;28;20112;-75
2022/04/18 08:34:13;;;;;;;3.42;2.95;;;10.90;56.00;;;;;;4191093;28;20061;-74
2022/04/18 08:36:14;;;;;;;3.00;2.70;;;11.00;55.90;;;;;;4194187;28;20061;-74
2022/04/18 08:38:16;;;;;;;5.47;3.13;;;10.90;56.00;;;;;;4209223;28;20871;-74
2022/04/18 08:40:20;;;;;;;2.95;2.63;;;10.90;55.60;;;;;;4190919;28;20057;-74
2022/04/18 08:42:23;;;;;;;3.10;2.80;;;10.90;57.00;;;;;;4208977;28;20053;-73
2022/04/18 08:44:26;;;;;;;9.00;2.90;;;11.00;55.90;;;;;;4212150;28;20095;-73
2022/04/18 08:46:28;;;;;;;3.80;2.97;;;11.10;56.50;;;;;;4188563;28;20156;-73
2022/04/18 08:53:14;;;;;;;2.70;2.50;;;11.10;54.60;;;;;;4203719;28;20127;-75
2022/04/18 08:55:17;;;;;;;3.08;2.78;;;11.10;54.90;;;;;;4212003;28;20060;-74
2022/04/18 08:57:19;;;;;;;4.18;3.22;;;11.10;54.70;;;;;;4209649;28;20061;-73
2022/04/18 08:59:20;;;;;;;2.88;2.60;;;11.10;54.00;;;;;;4210267;28;20063;-74
2022/04/18 09:01:22;;;;;;;3.28;2.60;;;11.10;54.60;;;;;;4191089;28;20796;-74
2022/04/18 09:03:24;;;;;;;5.15;2.75;;;11.30;54.60;;;;;;4189448;28;20104;-73
2022/04/18 09:05:26;;;;;;;3.30;2.80;;;11.30;54.10;;;;;;4193216;28;20065;-74
2022/04/18 09:07:27;;;;;;;6.22;3.47;;;11.40;54.40;;;;;;4213333;28;20179;-74
2022/04/18 09:09:29;;;;;;;2.88;2.67;;;11.40;53.00;;;;;;4215947;28;20060;-74
2022/04/18 09:11:40;;;;;;;4.20;2.63;;;11.50;53.00;;;;;;4208427;28;20052;-73
2022/04/18 09:13:43;;;;;;;;;;;11.60;52.70;;;;;;4196209;28;20111;-75
2022/04/18 09:15:48;;;;;;;4.55;2.85;;;11.60;52.70;;;;;;4196705;28;19928;-74
2022/04/18 09:17:50;;;;;;;3.60;2.70;;;11.70;52.50;;;;;;4194928;28;20055;-75
2022/04/18 09:20:07;;;;;;;5.82;3.35;;;11.80;52.70;;;;;;4208427;28;20049;-74
2022/04/18 09:22:09;;;;;;;2.58;2.38;;;11.90;51.70;;;;;;4194656;28;20057;-75
2022/04/18 09:24:32;;;;;;;2.70;2.47;;;11.90;52.10;;;;;;4207173;28;20063;-76
2022/04/18 09:26:34;;;;;;;3.85;1.95;;;12.00;52.70;;;;;;4217481;28;20062;-75
2022/04/18 09:28:41;;;;;;;4.63;2.50;;;12.20;51.40;;;;;;4214864;28;20060;-75
2022/04/18 09:30:43;;;;;;;4.82;3.22;;;12.20;51.30;;;;;;4193906;28;20053;-75
2022/04/18 09:33:08;;;;;;;3.30;2.72;;;12.10;51.60;;;;;;4192223;28;20872;-74
2022/04/18 09:35:10;;;;;;;2.90;2.35;;;12.20;52.40;;;;;;4207739;28;20621;-75
2022/04/18 09:37:17;;;;;;;3.60;2.95;;;12.30;51.80;;;;;;4196739;28;20061;-74
2022/04/18 09:39:24;;;;;;;3.42;2.47;;;12.30;50.80;;;;;;4197215;28;20143;-75
2022/04/18 09:41:31;;;;;;;3.20;2.55;;;12.30;51.50;;;;;;4210679;28;20674;-74
2022/04/18 09:43:40;;;;;;;3.80;2.80;;;12.30;50.60;;;;;;4197007;28;20061;-76
2022/04/18 09:45:42;;;;;;;4.47;2.50;;;12.40;49.40;;;;;;4206716;28;20067;-74
2022/04/18 09:47:43;;;;;;;4.43;2.53;;;12.40;48.80;;;;;;4196724;28;20057;-73
2022/04/18 09:49:46;;;;;;;2.90;2.17;;;12.30;48.00;;;;;;4214185;28;20060;-74
2022/04/18 09:51:51;;;;;;;4.45;2.50;;;12.20;48.10;;;;;;4191014;28;20061;-75
2022/04/18 09:53:55;;;;;;;4.70;2.72;;;12.30;49.10;;;;;;4193139;28;20096;-76
2022/04/18 09:55:57;;;;;;;3.50;2.55;;;12.40;48.70;;;;;;4208805;28;20847;-76
2022/04/18 09:58:03;;;;;;;3.03;2.75;;;12.50;48.00;;;;;;4212993;28;20899;-77
2022/04/18 10:00:25;;;;;;;2.53;2.33;;;12.50;49.00;;;;;;4202412;28;20091;-76
2022/04/18 10:02:28;;;;;;;3.78;2.40;;;12.50;48.90;;;;;;4192946;28;20179;-76
2022/04/18 10:04:30;;;;;;;4.03;2.15;;;12.50;48.50;;;;;;4197507;28;20175;-77
2022/04/18 10:06:32;;;;;;;2.30;2.10;;;12.40;47.20;;;;;;4215959;28;20048;-76
2022/04/18 10:08:35;;;;;;;2.47;2.28;;;12.40;48.30;;;;;;4210198;28;20053;-76
2022/04/18 10:10:41;;;;;;;6.50;2.72;;;12.60;47.50;;;;;;4201672;28;20057;-75
2022/04/18 10:12:42;;;;;;;4.47;2.47;;;12.60;47.10;;;;;;4215427;28;20159;-77
2022/04/18 10:14:44;;;;;;;4.38;2.55;;;12.70;47.90;;;;;;4217322;28;20056;-76
2022/04/18 10:16:46;;;;;;;3.88;2.67;;;12.80;48.50;;;;;;4216516;28;20063;-76
2022/04/18 10:18:54;;;;;;;3.30;2.20;;;12.80;47.80;;;;;;4191215;28;20061;-77
2022/04/18 10:21:07;;;;;;;5.05;2.83;;;12.80;46.90;;;;;;4196935;28;20100;-76
2022/04/18 10:23:27;;;;;;;4.47;2.40;;;12.80;47.30;;;;;;4216508;28;20088;-77
2022/04/18 10:26:03;;;;;;;4.28;2.78;;;12.90;46.70;;;;;;4214671;28;20055;-76
2022/04/18 10:28:14;;;;;;;2.80;2.50;;;12.90;47.20;;;;;;4214235;28;20959;-76
2022/04/18 10:30:17;;;;;;;3.95;2.90;;;12.80;48.00;;;;;;4210625;28;20099;-76
2022/04/18 10:32:24;;;;;;;3.05;2.47;;;12.90;48.40;;;;;;4208969;28;20155;-77
2022/04/18 10:34:31;;;;;;;2.85;2.60;;;13.00;48.40;;;;;;4192508;28;20052;-76
2022/04/18 10:36:34;;;;;;;3.65;2.80;;;13.00;47.70;;;;;;4216752;28;20060;-76
2022/04/18 10:38:38;;;;;;;2.90;2.58;;;13.10;49.70;;;;;;4219936;28;21542;-77
2022/04/18 10:40:40;;;;;;;4.18;3.28;;;13.10;48.00;;;;;;4197330;28;20123;-76
2022/04/18 10:42:42;;;;;;;4.03;2.60;;;13.20;47.70;;;;;;4197334;28;20057;-77
2022/04/18 10:44:57;;;;;;;3.70;2.70;;;13.20;47.40;;;;;;4196659;28;20903;-77
2022/04/18 10:47:05;;;;;;;2.80;2.60;;;13.30;47.10;;;;;;4214549;28;20071;-76
2022/04/18 10:49:18;;;;;;;3.42;2.63;;;13.00;47.10;;;;;;4209678;28;20122;-76
2022/04/18 10:51:48;;;;;;;2.95;2.35;;;13.00;47.30;;;;;;4216259;28;20052;-77
2022/04/18 10:54:04;;;;;;;3.75;2.67;;;13.10;46.60;;;;;;4196166;28;20045;-76
2022/04/18 10:56:08;;;;;;;3.33;2.95;;;13.20;47.50;;;;;;4209258;28;20060;-76
2022/04/18 10:58:15;;;;;;;2.83;2.45;;;13.30;46.60;;;;;;4217893;28;21076;-77
2022/04/18 11:00:44;;;;;;;3.40;2.30;;;13.30;47.40;;;;;;4195827;28;20820;-77
2022/04/18 11:02:49;;;;;;;5.88;2.28;;;13.30;46.90;;;;;;4214256;28;20088;-76
2022/04/18 11:04:53;;;;;;;3.20;2.90;;;13.30;47.00;;;;;;4199451;28;20093;-76